Time;durP1;ratioP1;P1;durP2;ratioP2;P2;SDS_P1;SDS_P2;PMS_P1;PMS_P2;Temp;Humidity;BMP_temperature;BMP_pressure;BME280_temperature;BME280_humidity;BME280_pressure;Samples;Min_cycle;Max_cycle;Signal;HPM_P1;HPM_P2
2021/06/25 00:01:42;;;;;;;10.80;8.10;;;;;;;15.54;64.08;101870.63;5053737;28;20044;-48
2021/06/25 00:04:09;;;;;;;14.68;8.45;;;;;;;15.55;63.85;101867.56;5054953;28;20087;-49
2021/06/25 00:06:37;;;;;;;14.55;8.30;;;;;;;15.58;63.46;101865.38;5054705;28;20052;-53
2021/06/25 00:09:05;;;;;;;13.05;8.30;;;;;;;15.56;63.93;101868.41;5054886;28;20049;-51
2021/06/25 00:11:33;;;;;;;13.05;8.70;;;;;;;15.57;63.54;101872.81;5054999;28;20037;-51
2021/06/25 00:14:00;;;;;;;11.32;8.20;;;;;;;15.59;63.52;101869.78;5055031;28;20087;-50
2021/06/25 00:16:28;;;;;;;12.30;8.30;;;;;;;15.59;63.23;101867.88;5055406;28;20399;-48
2021/06/25 00:18:56;;;;;;;14.90;8.88;;;;;;;15.56;63.39;101865.66;5054398;28;20056;-52
2021/06/25 00:21:23;;;;;;;14.68;8.75;;;;;;;15.54;63.12;101859.63;5055128;28;20158;-49
2021/06/25 00:23:51;;;;;;;10.98;7.75;;;;;;;15.50;63.00;101870.34;5054625;28;20499;-51
2021/06/25 00:26:19;;;;;;;12.65;7.75;;;;;;;15.42;62.18;101861.84;5054771;28;20086;-50
2021/06/25 00:28:46;;;;;;;10.93;7.45;;;;;;;15.39;62.16;101859.63;5054836;28;20049;-48
2021/06/25 00:31:14;;;;;;;12.98;7.85;;;;;;;15.36;61.07;101849.19;5054861;28;20041;-48
2021/06/25 00:33:41;;;;;;;12.07;6.90;;;;;;;15.32;60.47;101855.25;5054356;28;20515;-49
2021/06/25 00:36:09;;;;;;;10.65;7.10;;;;;;;15.28;60.66;101854.13;5054249;28;20118;-49
2021/06/25 00:38:39;;;;;;;10.82;7.18;;;;;;;15.23;60.26;101853.31;5054546;28;20115;-49
2021/06/25 00:41:07;;;;;;;12.45;7.60;;;;;;;15.16;59.82;101850.03;5054810;28;20040;-50
2021/06/25 00:43:37;;;;;;;11.27;6.75;;;;;;;15.15;59.52;101845.63;5054422;28;20041;-49
2021/06/25 00:46:05;;;;;;;11.02;7.28;;;;;;;15.13;59.89;101856.88;5054724;28;20108;-50
2021/06/25 00:48:33;;;;;;;11.73;7.18;;;;;;;15.13;60.10;101851.41;5054154;28;20079;-49
2021/06/25 00:51:00;;;;;;;11.43;6.68;;;;;;;15.17;59.94;101846.16;5054490;28;20488;-51
2021/06/25 00:53:29;;;;;;;10.70;7.50;;;;;;;15.18;60.15;101843.16;5054737;28;20098;-48
2021/06/25 00:55:57;;;;;;;12.15;7.25;;;;;;;15.18;59.57;101840.41;5054450;28;20099;-48
2021/06/25 00:58:24;;;;;;;11.82;7.13;;;;;;;15.19;59.57;101836.56;5054394;28;20041;-49
2021/06/25 01:00:52;;;;;;;13.27;7.68;;;;;;;15.21;59.86;101839.84;5054341;28;20052;-50
2021/06/25 01:03:20;;;;;;;10.93;7.65;;;;;;;15.22;59.48;101837.94;5069392;28;20399;-50
2021/06/25 01:05:47;;;;;;;10.15;7.32;;;;;;;15.21;59.41;101834.38;5054008;28;20045;-49
2021/06/25 01:08:15;;;;;;;10.88;7.80;;;;;;;15.21;59.45;101831.63;5053742;28;20484;-50
2021/06/25 01:10:43;;;;;;;13.48;8.02;;;;;;;15.18;59.06;101837.66;5054168;28;20041;-47
2021/06/25 01:13:10;;;;;;;8.75;6.32;;;;;;;15.17;59.61;101833.25;5053769;28;20045;-52
2021/06/25 01:15:38;;;;;;;12.40;7.82;;;;;;;15.14;59.07;101831.06;5052722;28;20454;-49
2021/06/25 01:18:06;;;;;;;12.18;8.40;;;;;;;15.11;59.40;101826.94;5053590;28;20103;-50
2021/06/25 01:20:35;;;;;;;12.18;8.32;;;;;;;15.09;59.20;101818.16;5053658;28;20099;-50
2021/06/25 01:23:03;;;;;;;13.15;8.82;;;;;;;15.05;59.03;101817.06;5054145;28;20052;-50
2021/06/25 01:25:33;;;;;;;12.30;8.32;;;;;;;15.05;59.39;101816.25;5053737;28;20049;-52
2021/06/25 01:28:05;;;;;;;14.32;8.75;;;;;;;15.03;59.60;101819.28;5054031;28;20061;-50
2021/06/25 01:30:36;;;;;;;13.43;9.20;;;;;;;15.03;59.53;101812.94;5053337;28;20125;-49
2021/06/25 01:33:06;;;;;;;13.57;9.13;;;;;;;15.01;59.82;101817.88;5053466;28;20077;-52
2021/06/25 01:35:35;;;;;;;14.48;9.48;;;;;;;14.97;59.70;101819.53;5053380;28;20419;-48
2021/06/25 01:38:10;;;;;;;11.60;8.93;;;;;;;14.94;59.83;101828.31;5053868;28;20044;-49
2021/06/25 01:40:38;;;;;;;15.07;9.38;;;;;;;14.88;59.92;101825.56;5053225;28;20118;-49
2021/06/25 01:43:08;;;;;;;13.80;8.38;;;;;;;14.83;60.12;101833.78;5053340;28;20041;-48
2021/06/25 01:45:37;;;;;;;12.90;9.52;;;;;;;14.83;60.29;101830.22;5053320;28;20045;-49
2021/06/25 01:48:05;;;;;;;14.73;9.50;;;;;;;14.81;60.01;101818.69;5052956;28;20051;-49
2021/06/25 01:50:39;;;;;;;13.45;9.68;;;;;;;14.78;60.24;101817.31;5053380;28;20042;-51
2021/06/25 01:53:09;;;;;;;14.40;9.43;;;;;;;14.78;60.13;101816.50;5053210;28;20189;-49
2021/06/25 01:55:39;;;;;;;13.05;9.15;;;;;;;14.78;60.10;101819.25;5053164;28;20049;-49
2021/06/25 01:58:09;;;;;;;14.25;9.32;;;;;;;14.79;60.18;101826.34;5053259;28;20040;-52
2021/06/25 02:00:38;;;;;;;12.23;9.25;;;;;;;14.78;60.03;101811.81;5053492;28;20041;-53
2021/06/25 02:03:06;;;;;;;12.98;9.18;;;;;;;14.81;60.20;101821.44;5053792;28;20044;-53
2021/06/25 02:05:34;;;;;;;11.98;9.18;;;;;;;14.81;59.60;101813.19;5053289;28;20045;-51
2021/06/25 02:08:02;;;;;;;11.93;9.05;;;;;;;14.80;59.97;101808.81;5053039;28;20205;-53
2021/06/25 02:10:30;;;;;;;13.77;8.95;;;;;;;14.78;60.13;101806.34;5053285;28;20076;-53
2021/06/25 02:12:59;;;;;;;12.13;8.40;;;;;;;14.78;60.04;101809.06;5052076;28;20624;-51
2021/06/25 02:15:26;;;;;;;12.00;8.20;;;;;;;14.78;60.32;101800.03;5052635;28;20041;-50
2021/06/25 02:17:54;;;;;;;12.80;9.57;;;;;;;14.79;60.20;101807.16;5052996;28;20446;-50
2021/06/25 02:20:22;;;;;;;13.68;10.02;;;;;;;14.78;59.89;101808.25;5052928;28;20041;-49
2021/06/25 02:22:49;;;;;;;14.75;10.73;;;;;;;14.69;59.90;101803.28;5052844;28;20044;-53
2021/06/25 02:25:17;;;;;;;15.32;10.50;;;;;;;14.62;60.37;101802.75;5052363;28;20041;-51
2021/06/25 02:27:45;;;;;;;12.85;9.77;;;;;;;14.58;60.05;101796.16;5051321;28;20102;-53
2021/06/25 02:30:17;;;;;;;13.15;10.77;;;;;;;14.54;60.41;101800.53;5052006;28;20075;-53
2021/06/25 02:32:46;;;;;;;14.23;10.13;;;;;;;14.45;60.79;101797.44;5052953;28;20523;-53
2021/06/25 02:35:14;;;;;;;12.20;9.27;;;;;;;14.41;60.97;101801.03;5052966;28;20052;-54
2021/06/25 02:37:42;;;;;;;13.27;9.52;;;;;;;14.31;61.50;101793.59;5053370;28;20407;-51
2021/06/25 02:40:11;;;;;;;12.52;9.55;;;;;;;14.29;61.81;101787.56;5053153;28;20064;-50
2021/06/25 02:42:39;;;;;;;12.60;10.30;;;;;;;14.26;61.76;101791.66;5052569;28;20045;-50
2021/06/25 02:45:08;;;;;;;17.08;10.35;;;;;;;14.22;62.13;101786.97;5052190;28;20091;-51
2021/06/25 02:47:36;;;;;;;13.10;9.90;;;;;;;14.26;62.61;101788.91;5052376;28;20072;-53
2021/06/25 02:50:06;;;;;;;14.63;10.95;;;;;;;14.30;62.61;101791.94;5052197;28;20072;-50
2021/06/25 02:52:34;;;;;;;14.07;10.63;;;;;;;14.35;62.80;101786.47;5052278;28;20094;-51
2021/06/25 02:55:02;;;;;;;13.07;10.43;;;;;;;14.36;62.86;101782.66;5052164;28;20040;-51
2021/06/25 02:57:31;;;;;;;16.83;11.23;;;;;;;14.36;62.90;101785.38;5052266;28;20048;-49
2021/06/25 02:59:59;;;;;;;13.32;10.57;;;;;;;14.38;63.03;101782.34;5051570;28;20044;-53
2021/06/25 03:02:27;;;;;;;16.58;12.13;;;;;;;14.36;63.10;101774.41;5051904;28;20414;-50
2021/06/25 03:04:55;;;;;;;13.43;10.55;;;;;;;14.35;63.04;101772.75;5052134;28;20403;-53
2021/06/25 03:07:22;;;;;;;14.88;10.98;;;;;;;14.33;63.25;101771.38;5051052;28;20099;-51
2021/06/25 03:09:50;;;;;;;13.43;11.00;;;;;;;14.31;63.02;101768.91;5051815;28;20040;-52
2021/06/25 03:12:17;;;;;;;16.15;12.63;;;;;;;14.26;63.23;101761.50;5052081;28;20064;-52
2021/06/25 03:14:45;;;;;;;13.73;10.57;;;;;;;14.26;63.34;101758.75;5051466;28;20496;-50
2021/06/25 03:17:13;;;;;;;15.30;11.02;;;;;;;14.30;63.34;101761.78;5052018;28;20037;-51
2021/06/25 03:19:40;;;;;;;14.70;11.88;;;;;;;14.30;63.29;101760.97;5052224;28;20053;-50
2021/06/25 03:22:09;;;;;;;14.93;12.20;;;;;;;14.31;63.24;101762.59;5051682;28;20037;-49
2021/06/25 03:24:36;;;;;;;14.35;11.77;;;;;;;14.32;63.20;101765.06;5051895;28;20091;-52
2021/06/25 03:27:04;;;;;;;13.88;11.77;;;;;;;14.33;63.03;101761.22;5054896;28;20053;-50
2021/06/25 03:29:32;;;;;;;13.05;10.25;;;;;;;14.37;62.84;101756.03;5055653;28;20053;-49
2021/06/25 03:32:00;;;;;;;15.18;12.07;;;;;;;14.38;62.63;101746.72;5056020;28;20314;-50
2021/06/25 03:34:27;;;;;;;14.40;12.20;;;;;;;14.35;62.62;101745.34;5055832;28;20045;-50
2021/06/25 03:36:55;;;;;;;14.65;11.75;;;;;;;14.35;62.66;101742.59;5055675;28;20075;-47
2021/06/25 03:39:23;;;;;;;14.63;11.20;;;;;;;14.36;62.47;101744.25;5056028;28;20095;-49
2021/06/25 03:41:50;;;;;;;13.65;11.70;;;;;;;14.37;62.69;101751.38;5055519;28;20064;-48
2021/06/25 03:44:18;;;;;;;18.02;12.15;;;;;;;14.41;62.65;101747.00;5041492;28;20082;-51
2021/06/25 03:46:45;;;;;;;13.55;11.02;;;;;;;14.41;62.53;101751.66;5054608;28;20548;-52
2021/06/25 03:49:13;;;;;;;15.23;11.13;;;;;;;14.41;62.63;101752.50;5054373;28;20048;-52
2021/06/25 03:51:41;;;;;;;16.15;12.38;;;;;;;14.43;62.47;101753.03;5055532;28;20532;-51
2021/06/25 03:54:08;;;;;;;14.63;12.32;;;;;;;14.44;62.59;101751.94;5055678;28;20049;-50
2021/06/25 03:56:36;;;;;;;16.42;12.43;;;;;;;14.39;62.63;101749.19;5055473;28;20068;-52
2021/06/25 03:59:04;;;;;;;19.67;14.05;;;;;;;14.32;63.14;101743.13;5053840;28;20072;-52
2021/06/25 04:01:31;;;;;;;24.60;14.38;;;;;;;14.30;63.25;101747.25;5055612;28;20041;-50
2021/06/25 04:03:59;;;;;;;18.33;13.43;;;;;;;14.28;63.48;101736.53;5055166;28;20041;-49
2021/06/25 04:06:27;;;;;;;18.83;12.68;;;;;;;14.27;63.62;101743.94;5054017;28;20049;-50
2021/06/25 04:08:54;;;;;;;16.73;12.48;;;;;;;14.30;63.88;101745.31;5055481;28;20076;-49
2021/06/25 04:11:22;;;;;;;12.93;9.27;;;;;;;14.35;63.56;101742.59;5054595;28;20416;-52
2021/06/25 04:13:50;;;;;;;12.80;10.57;;;;;;;14.40;63.74;101742.59;5054736;28;20464;-49
2021/06/25 04:16:17;;;;;;;14.30;11.45;;;;;;;14.42;63.21;101737.66;5055334;28;20041;-49
2021/06/25 04:18:45;;;;;;;12.18;10.35;;;;;;;14.45;63.09;101737.13;5054944;28;20106;-46
2021/06/25 04:21:13;;;;;;;14.23;10.63;;;;;;;14.45;62.86;101730.81;5054936;28;20077;-49
2021/06/25 04:23:40;;;;;;;13.95;11.88;;;;;;;14.46;62.87;101735.22;5054898;28;20393;-47
2021/06/25 04:26:08;;;;;;;13.55;10.00;;;;;;;14.45;62.61;101737.13;5054613;28;20381;-50
2021/06/25 04:28:36;;;;;;;13.32;9.77;;;;;;;14.44;62.56;101729.19;5054686;28;20048;-49
2021/06/25 04:31:03;;;;;;;14.65;10.10;;;;;;;14.45;62.49;101731.63;5054604;28;20083;-49
2021/06/25 04:33:31;;;;;;;14.13;10.73;;;;;;;14.46;62.40;101724.25;5054606;28;20053;-50
2021/06/25 04:35:59;;;;;;;16.40;11.00;;;;;;;14.49;62.35;101726.44;5052870;28;20392;-51
2021/06/25 04:38:26;;;;;;;12.95;10.57;;;;;;;14.51;62.42;101723.44;5054669;28;20041;-52
2021/06/25 04:40:54;;;;;;;13.00;10.43;;;;;;;14.47;62.14;101729.44;5040488;28;20049;-53
2021/06/25 04:43:22;;;;;;;15.65;11.07;;;;;;;14.42;62.43;101723.16;5054664;28;20045;-53
2021/06/25 04:45:49;;;;;;;15.57;12.38;;;;;;;14.36;62.78;101722.31;5054171;28;20501;-50
2021/06/25 04:48:17;;;;;;;14.38;11.32;;;;;;;14.34;63.39;101723.69;5054724;28;20044;-52
2021/06/25 04:50:45;;;;;;;15.98;12.88;;;;;;;14.39;63.21;101721.78;5054143;28;20496;-54
2021/06/25 04:53:13;;;;;;;17.27;12.55;;;;;;;14.44;63.39;101713.56;5054313;28;20036;-52
2021/06/25 04:55:42;;;;;;;19.23;11.63;;;;;;;14.49;63.15;101710.81;5054040;28;20518;-51
2021/06/25 04:58:14;;;;;;;18.63;13.07;;;;;;;14.48;63.30;101709.19;5054524;28;20036;-52
2021/06/25 05:00:43;;;;;;;15.32;11.45;;;;;;;14.48;63.25;101714.66;5053881;28;20057;-54
2021/06/25 05:03:11;;;;;;;14.48;11.45;;;;;;;14.54;63.26;101717.44;5054105;28;20041;-51
2021/06/25 05:05:41;;;;;;;15.18;12.50;;;;;;;14.54;62.79;101714.69;5054300;28;20056;-49
2021/06/25 05:08:10;;;;;;;18.75;13.20;;;;;;;14.57;62.96;101705.91;5054328;28;20060;-51
2021/06/25 05:10:37;;;;;;;17.38;12.65;;;;;;;14.64;63.00;101703.72;5053308;28;20095;-51
2021/06/25 05:13:06;;;;;;;14.68;9.93;;;;;;;14.65;63.37;101708.13;5053733;28;20099;-53
2021/06/25 05:15:34;;;;;;;16.02;13.10;;;;;;;14.65;63.07;101708.94;5054158;28;20065;-52
2021/06/25 05:18:18;;;;;;;15.82;12.77;;;;;;;14.67;63.39;101708.66;5053837;28;20107;-49
2021/06/25 05:21:06;;;;;;;21.83;14.25;;;;;;;14.66;63.04;101715.25;5045200;28;20049;-51
2021/06/25 05:23:34;;;;;;;18.85;12.80;;;;;;;14.69;63.31;101709.22;5053862;28;21016;-50
2021/06/25 05:26:02;;;;;;;18.35;14.10;;;;;;;14.71;63.31;101707.03;5053625;28;20059;-50
2021/06/25 05:28:30;;;;;;;15.98;12.07;;;;;;;14.71;63.40;101709.75;5053230;28;20128;-50
2021/06/25 05:31:03;;;;;;;19.35;13.23;;;;;;;14.71;63.72;101707.03;5052338;28;20045;-50
2021/06/25 05:33:31;;;;;;;13.52;8.90;;;;;;;14.76;63.89;101704.28;5053334;28;20076;-50
2021/06/25 05:35:58;;;;;;;20.15;13.55;;;;;;;14.83;64.22;101704.81;5053532;28;20044;-48
2021/06/25 05:38:26;;;;;;;20.75;15.90;;;;;;;14.80;64.08;101705.38;5053626;28;20049;-47
2021/06/25 05:40:54;;;;;;;22.30;15.48;;;;;;;14.83;64.27;101699.34;5049793;28;20045;-48
2021/06/25 05:43:21;;;;;;;19.92;15.18;;;;;;;14.83;64.58;101699.34;5053209;28;20045;-48
2021/06/25 05:45:49;;;;;;;12.55;9.35;;;;;;;14.89;64.76;101701.00;5053217;28;20094;-51
2021/06/25 05:48:17;;;;;;;22.17;14.43;;;;;;;15.01;65.33;101699.84;5052301;28;20045;-51
2021/06/25 05:50:45;;;;;;;16.75;12.73;;;;;;;15.01;65.15;101699.84;5053000;28;20491;-50
2021/06/25 05:53:13;;;;;;;24.45;17.13;;;;;;;15.01;65.55;101694.38;5052579;28;20090;-50
2021/06/25 05:55:42;;;;;;;22.75;17.75;;;;;;;14.98;65.18;101703.16;5052614;28;20037;-51
2021/06/25 05:58:11;;;;;;;29.10;21.55;;;;;;;14.95;65.71;101700.97;5053039;28;20049;-50
2021/06/25 06:00:40;;;;;;;23.02;15.05;;;;;;;14.96;65.59;101706.22;5052932;28;20052;-53
2021/06/25 06:03:08;;;;;;;18.80;14.35;;;;;;;14.94;65.87;101693.84;5052696;28;20044;-50
2021/06/25 06:05:36;;;;;;;25.23;20.30;;;;;;;14.93;65.86;101701.25;5052830;28;20068;-50
2021/06/25 06:08:04;;;;;;;13.75;10.55;;;;;;;15.04;66.08;101699.31;5052142;28;20043;-51
2021/06/25 06:10:32;;;;;;;12.65;7.13;;;;;;;15.09;65.89;101689.16;5051597;28;20053;-53
2021/06/25 06:13:01;;;;;;;19.25;15.13;;;;;;;15.15;66.00;101686.41;5052741;28;20569;-50
2021/06/25 06:15:29;;;;;;;25.08;19.90;;;;;;;15.12;65.92;101679.53;5052903;28;20049;-51
2021/06/25 06:17:59;;;;;;;32.47;23.70;;;;;;;15.09;66.28;101671.88;5052633;28;20091;-53
2021/06/25 06:20:28;;;;;;;31.85;22.02;;;;;;;15.09;66.47;101680.09;5052486;28;20087;-51
2021/06/25 06:31:21;;;;;;;34.03;24.38;;;;;;;15.01;67.47;101691.63;5052173;28;20085;-48
2021/06/25 06:36:31;;;;;;;33.25;25.98;;;;;;;15.02;67.61;101688.63;5052358;28;20056;-50
2021/06/25 06:39:02;;;;;;;26.60;20.33;;;;;;;15.05;67.29;101687.25;5051890;28;20051;-49
2021/06/25 06:41:32;;;;;;;33.35;26.40;;;;;;;15.07;67.29;101687.78;5052393;28;20047;-50
2021/06/25 06:44:00;;;;;;;24.98;18.48;;;;;;;15.07;67.20;101688.59;5051805;28;20115;-49
2021/06/25 06:46:30;;;;;;;20.63;16.85;;;;;;;15.11;67.19;101688.88;5052567;28;20479;-51
2021/06/25 06:48:58;;;;;;;10.77;8.77;;;;;;;15.15;66.94;101684.47;5052098;28;20048;-52
2021/06/25 06:51:26;;;;;;;25.75;19.65;;;;;;;15.18;67.19;101686.69;5051853;28;20056;-53
2021/06/25 06:53:57;;;;;;;24.75;17.08;;;;;;;15.19;67.23;101691.06;5051804;28;20190;-50
2021/06/25 06:56:25;;;;;;;31.05;22.58;;;;;;;15.18;67.14;101694.09;5051978;28;20049;-49
2021/06/25 06:58:53;;;;;;;18.15;13.52;;;;;;;15.21;67.67;101704.50;5051677;28;20095;-50
2021/06/25 07:01:22;;;;;;;18.67;13.63;;;;;;;15.26;67.55;101699.81;5050503;28;20045;-51
2021/06/25 07:04:10;;;;;;;19.80;14.55;;;;;;;15.30;67.46;101700.09;5052079;28;20095;-51
2021/06/25 07:06:37;;;;;;;15.27;11.00;;;;;;;15.34;67.22;101709.41;5051786;28;20041;-50
2021/06/25 07:09:05;;;;;;;22.08;15.82;;;;;;;15.34;67.47;101715.75;5047304;28;20576;-51
2021/06/25 07:11:33;;;;;;;16.38;8.00;;;;;;;15.34;67.00;101715.75;5051860;28;20041;-47
2021/06/25 07:14:01;;;;;;;24.33;16.30;;;;;;;15.35;67.45;101727.56;5051585;28;20091;-48
2021/06/25 07:16:28;;;;;;;21.35;14.88;;;;;;;15.33;67.73;101730.56;5051736;28;20087;-49
2021/06/25 07:18:56;;;;;;;27.92;17.38;;;;;;;15.45;67.01;101734.94;5051866;28;20049;-50
2021/06/25 07:21:24;;;;;;;13.90;9.38;;;;;;;15.41;67.15;101731.91;5051278;28;20045;-50
2021/06/25 07:23:51;;;;;;;21.95;14.90;;;;;;;15.39;67.19;101722.31;5037580;28;20033;-51
2021/06/25 07:26:20;;;;;;;18.90;14.38;;;;;;;15.36;67.02;101723.69;5051656;28;20049;-49
2021/06/25 07:28:48;;;;;;;24.95;20.20;;;;;;;15.30;67.06;101719.31;5051597;28;20045;-50
2021/06/25 07:31:21;;;;;;;25.48;16.85;;;;;;;15.29;67.39;101717.66;5051749;28;20128;-52
2021/06/25 07:33:49;;;;;;;27.17;19.50;;;;;;;15.37;66.86;101713.53;5051513;28;20044;-53
2021/06/25 07:36:18;;;;;;;26.35;18.83;;;;;;;15.39;67.07;101716.81;5052073;28;20045;-54
2021/06/25 07:38:46;;;;;;;22.73;12.90;;;;;;;15.42;66.82;101716.28;5052301;28;20099;-53
2021/06/25 07:41:14;;;;;;;23.95;17.25;;;;;;;15.37;66.96;101717.13;5052369;28;20052;-53
2021/06/25 07:43:41;;;;;;;27.15;19.27;;;;;;;15.39;67.06;101719.56;5051943;28;20045;-53
2021/06/25 07:46:09;;;;;;;25.08;17.42;;;;;;;15.38;67.25;101728.91;5052189;28;20045;-55
2021/06/25 07:48:37;;;;;;;25.13;19.50;;;;;;;15.32;67.46;101726.19;5051713;28;20503;-51
2021/06/25 07:51:04;;;;;;;25.10;19.83;;;;;;;15.30;67.37;101717.41;5051503;28;20487;-49
2021/06/25 07:53:32;;;;;;;20.10;15.65;;;;;;;15.30;67.57;101717.41;5051950;28;20048;-51
2021/06/25 07:56:00;;;;;;;38.55;19.58;;;;;;;15.31;67.54;101708.03;5051616;28;20041;-52
2021/06/25 07:58:27;;;;;;;40.17;20.63;;;;;;;15.32;67.68;101711.59;5051614;28;20443;-51
2021/06/25 08:00:55;;;;;;;21.38;14.38;;;;;;;15.33;67.38;101711.34;5051225;28;20040;-50
2021/06/25 08:03:23;;;;;;;22.55;14.45;;;;;;;15.38;67.62;101715.19;5051023;28;20526;-49
2021/06/25 08:05:53;;;;;;;24.05;15.05;;;;;;;15.39;67.78;101722.31;5050985;28;20068;-50
2021/06/25 08:08:21;;;;;;;22.45;15.68;;;;;;;15.41;67.54;101722.84;5051347;28;20069;-49
2021/06/25 08:10:49;;;;;;;25.98;19.02;;;;;;;15.45;67.49;101719.28;5051038;28;20136;-50
2021/06/25 08:13:16;;;;;;;27.25;18.15;;;;;;;15.48;67.19;101721.47;5054517;28;20056;-49
2021/06/25 08:15:49;;;;;;;22.50;15.30;;;;;;;15.52;66.96;101716.25;5055047;28;20496;-53
2021/06/25 08:18:20;;;;;;;23.13;17.40;;;;;;;15.54;66.96;101709.38;5054716;28;20049;-53
2021/06/25 08:20:47;;;;;;;24.65;17.52;;;;;;;15.59;66.76;101711.28;5054964;28;20048;-52
2021/06/25 08:23:15;;;;;;;17.23;13.23;;;;;;;15.59;66.66;101711.28;5054889;28;20041;-51
2021/06/25 08:25:43;;;;;;;11.32;7.15;;;;;;;15.63;67.07;101709.59;5054898;28;20110;-52
2021/06/25 08:28:11;;;;;;;12.52;5.47;;;;;;;15.68;66.83;101704.09;5053452;28;20053;-53
2021/06/25 08:30:39;;;;;;;21.23;14.18;;;;;;;15.76;66.37;101700.78;5054386;28;20513;-50
2021/06/25 08:33:08;;;;;;;18.80;12.40;;;;;;;15.83;66.27;101699.69;5054002;28;20411;-52
2021/06/25 08:35:36;;;;;;;15.10;11.10;;;;;;;15.87;66.31;101703.50;5054730;28;20049;-53
2021/06/25 08:38:03;;;;;;;23.77;18.58;;;;;;;15.86;65.66;101693.63;5054935;28;20495;-50
2021/06/25 08:40:31;;;;;;;27.25;19.88;;;;;;;15.81;65.80;101697.22;5054685;28;20033;-51
2021/06/25 08:43:00;;;;;;;29.25;21.02;;;;;;;15.75;65.76;101687.31;5054394;28;20045;-52
2021/06/25 08:45:30;;;;;;;27.60;20.58;;;;;;;15.73;66.38;101693.13;5052865;28;20045;-51
2021/06/25 08:47:59;;;;;;;25.58;18.88;;;;;;;15.75;66.08;101696.41;5051818;28;20037;-54
2021/06/25 08:50:27;;;;;;;18.77;13.18;;;;;;;15.82;65.84;101692.53;5052786;28;20049;-48
2021/06/25 08:52:55;;;;;;;22.60;15.50;;;;;;;15.86;65.70;101693.63;5053342;28;20033;-55
2021/06/25 08:55:23;;;;;;;22.27;17.65;;;;;;;15.90;65.47;101697.44;5053755;28;20049;-52
2021/06/25 08:57:50;;;;;;;19.13;15.18;;;;;;;15.89;65.27;101693.03;5052570;28;20399;-54
2021/06/25 09:00:19;;;;;;;19.50;15.10;;;;;;;15.92;65.16;101689.72;5053949;28;20095;-50
2021/06/25 09:02:47;;;;;;;19.08;12.32;;;;;;;16.02;65.38;101697.09;5053289;28;20054;-49
2021/06/25 09:05:20;;;;;;;19.45;14.82;;;;;;;16.07;64.87;101695.16;5052485;28;20052;-50
2021/06/25 09:07:49;;;;;;;12.75;7.07;;;;;;;16.21;64.72;101694.50;5053946;28;20045;-51
2021/06/25 09:10:39;;;;;;;20.02;16.00;;;;;;;16.22;64.22;101690.66;5053991;28;20087;-53
2021/06/25 09:13:14;;;;;;;17.05;11.02;;;;;;;16.20;64.03;101688.19;5053391;28;20047;-52
2021/06/25 09:15:43;;;;;;;19.75;13.30;;;;;;;16.25;63.33;101679.09;5053186;28;20045;-52
2021/06/25 09:18:12;;;;;;;21.52;14.90;;;;;;;16.30;63.86;101676.31;5052911;28;20041;-53
2021/06/25 09:20:52;;;;;;;22.00;13.18;;;;;;;16.38;64.16;101678.47;5054022;28;20071;-55
2021/06/25 09:23:34;;;;;;;16.60;12.52;;;;;;;16.44;63.74;101677.31;5059774;28;20044;-54
2021/06/25 09:26:09;;;;;;;15.60;12.57;;;;;;;16.50;63.58;101670.66;5063082;28;20048;-54
2021/06/25 09:28:39;;;;;;;21.67;15.57;;;;;;;16.49;63.20;101680.00;5053330;28;20061;-52
2021/06/25 09:31:22;;;;;;;24.00;18.38;;;;;;;16.55;63.27;101678.88;5053567;28;20045;-54
2021/06/25 09:33:55;;;;;;;18.65;14.27;;;;;;;16.66;63.41;101679.59;5054062;28;20053;-51
2021/06/25 09:36:26;;;;;;;20.85;13.52;;;;;;;16.75;63.21;101682.56;5052176;28;20539;-55
2021/06/25 09:39:13;;;;;;;21.40;16.20;;;;;;;16.73;62.58;101688.34;5053356;28;20060;-52
2021/06/25 09:41:43;;;;;;;15.65;11.32;;;;;;;16.78;63.20;101677.31;5053160;28;20049;-52
2021/06/25 09:44:19;;;;;;;16.83;12.68;;;;;;;16.91;63.06;101678.59;5052880;28;20392;-51
2021/06/25 09:46:55;;;;;;;21.33;10.73;;;;;;;17.06;62.82;101669.38;5052323;28;20037;-49
2021/06/25 09:49:27;;;;;;;15.18;10.70;;;;;;;17.20;62.42;101672.25;5051539;28;20535;-49
2021/06/25 09:52:01;;;;;;;15.15;11.05;;;;;;;17.31;61.60;101668.25;5051808;28;20442;-48
2021/06/25 09:54:30;;;;;;;18.60;12.10;;;;;;;17.44;61.17;101662.06;5053153;28;20045;-47
2021/06/25 10:02:20;;;;;;;17.25;12.98;;;;;;;17.70;60.14;101664.47;5050971;28;20053;-49
2021/06/25 10:04:50;;;;;;;16.77;8.52;;;;;;;17.78;59.79;101666.59;5051391;28;20122;-50
2021/06/25 10:07:27;;;;;;;20.17;12.82;;;;;;;17.81;58.69;101660.50;5057998;28;20049;-51
2021/06/25 10:10:02;;;;;;;25.38;16.20;;;;;;;17.73;59.17;101658.38;5045832;28;20499;-50
2021/06/25 10:12:30;;;;;;;43.13;31.77;;;;;;;17.69;59.19;101662.84;5052398;28;20049;-51
2021/06/25 10:14:58;;;;;;;23.55;17.27;;;;;;;17.64;58.31;101658.22;5052023;28;20800;-52
2021/06/25 10:17:29;;;;;;;30.10;20.35;;;;;;;17.62;59.08;101654.13;5051275;28;20052;-52
2021/06/25 10:20:11;;;;;;;87.47;50.92;;;;;;;17.66;59.69;101652.41;5052059;28;20128;-51
2021/06/25 10:22:42;;;;;;;73.68;42.53;;;;;;;17.73;59.35;101652.88;5052787;28;20061;-52
2021/06/25 10:25:12;;;;;;;71.15;42.90;;;;;;;17.77;59.51;101644.81;5050796;28;20150;-51
2021/06/25 10:27:40;;;;;;;114.80;69.70;;;;;;;17.83;60.03;101652.75;5051123;28;20568;-51
2021/06/25 10:30:08;;;;;;;97.28;58.67;;;;;;;17.89;60.20;101642.47;5051985;28;20561;-51
2021/06/25 10:32:39;;;;;;;121.65;69.18;;;;;;;17.99;59.68;101644.25;5052167;28;20041;-52
2021/06/25 10:35:11;;;;;;;58.83;37.90;;;;;;;18.12;58.20;101635.25;5056060;28;20044;-50
2021/06/25 10:37:41;;;;;;;110.65;62.92;;;;;;;18.14;59.83;101638.53;5050948;28;20064;-50
2021/06/25 10:40:31;;;;;;;104.65;61.25;;;;;;;18.31;58.49;101647.09;5052192;28;20045;-51
2021/06/25 10:43:01;;;;;;;56.05;36.85;;;;;;;18.26;58.47;101646.34;5046809;28;20045;-50
2021/06/25 10:45:42;;;;;;;59.50;37.10;;;;;;;18.24;59.49;101630.09;5051171;28;20044;-51
2021/06/25 10:48:11;;;;;;;93.93;55.60;;;;;;;18.28;58.86;101631.16;5051629;28;20044;-55
2021/06/25 10:50:38;;;;;;;65.50;40.55;;;;;;;18.31;57.88;101640.75;5051910;28;20045;-53
2021/06/25 10:53:08;;;;;;;98.88;52.97;;;;;;;18.29;60.31;101632.78;5049915;28;20060;-50
2021/06/25 10:55:44;;;;;;;76.85;45.95;;;;;;;18.41;58.27;101643.34;5049944;28;20045;-50
2021/06/25 10:58:24;;;;;;;94.95;51.92;;;;;;;18.55;59.84;101635.13;5046527;28;20535;-50
2021/06/25 11:00:55;;;;;;;45.50;28.50;;;;;;;18.58;57.19;101637.25;5049430;28;20086;-50
2021/06/25 11:03:29;;;;;;;41.05;25.52;;;;;;;18.61;58.38;101633.91;5051559;28;20064;-48
2021/06/25 11:05:57;;;;;;;75.07;42.92;;;;;;;18.64;57.99;101636.06;5051212;28;20044;-50
2021/06/25 11:08:25;;;;;;;74.03;40.50;;;;;;;18.68;58.20;101636.28;5051818;28;20045;-49
2021/06/25 11:10:58;;;;;;;44.38;25.63;;;;;;;18.69;57.40;101638.75;5051698;28;20076;-49
2021/06/25 11:13:35;;;;;;;48.70;29.50;;;;;;;18.68;58.79;101628.81;5051007;28;20049;-50
2021/06/25 11:16:23;;;;;;;35.63;21.70;;;;;;;18.73;57.40;101628.69;5051410;28;20114;-52
2021/06/25 11:18:51;;;;;;;22.25;15.70;;;;;;;18.65;56.77;101634.94;5039605;28;20064;-51
2021/06/25 11:21:18;;;;;;;49.80;30.48;;;;;;;18.65;57.86;101634.13;5050569;28;20057;-50
2021/06/25 11:23:48;;;;;;;46.47;26.83;;;;;;;18.68;57.95;101637.09;5051635;28;20399;-50
2021/06/25 11:26:19;;;;;;;34.58;19.77;;;;;;;18.77;57.80;101625.38;5050710;28;20087;-52
2021/06/25 11:28:47;;;;;;;35.38;21.55;;;;;;;18.82;56.79;101622.53;5050882;28;20049;-52
2021/06/25 11:31:18;;;;;;;35.63;21.73;;;;;;;18.82;55.86;101633.56;5051516;28;20560;-48
2021/06/25 11:36:23;;;;;;;22.10;13.55;;;;;;;18.80;55.66;101631.09;5051491;28;20041;-54
2021/06/25 11:38:55;;;;;;;17.92;12.38;;;;;;;18.79;54.55;101626.72;5051180;28;20091;-48
2021/06/25 11:41:29;;;;;;;19.73;13.25;;;;;;;18.81;53.86;101629.16;5050753;28;20392;-50